sensor_id;sensor_type;location;lat;lon;timestamp;temperature;humidity
1461;DHT22;724;49.910;12.530;2024-01-07T00:01:28;1.20;1.00
1461;DHT22;724;49.910;12.530;2024-01-07T00:03:55;1.20;1.00
1461;DHT22;724;49.910;12.530;2024-01-07T00:06:22;1.20;1.00
1461;DHT22;724;49.910;12.530;2024-01-07T00:08:49;1.30;1.00
1461;DHT22;724;49.910;12.530;2024-01-07T00:11:15;1.20;99.90
1461;DHT22;724;49.910;12.530;2024-01-07T00:13:42;1.20;99.90
1461;DHT22;724;49.910;12.530;2024-01-07T00:16:10;1.20;99.90
1461;DHT22;724;49.910;12.530;2024-01-07T00:18:37;1.20;99.90
1461;DHT22;724;49.910;12.530;2024-01-07T00:21:04;1.20;99.90
1461;DHT22;724;49.910;12.530;2024-01-07T00:23:31;1.10;99.90
1461;DHT22;724;49.910;12.530;2024-01-07T00:25:58;1.10;99.90
1461;DHT22;724;49.910;12.530;2024-01-07T00:28:24;1.20;99.90
1461;DHT22;724;49.910;12.530;2024-01-07T00:30:51;1.20;99.90
1461;DHT22;724;49.910;12.530;2024-01-07T00:33:19;1.20;99.90
1461;DHT22;724;49.910;12.530;2024-01-07T00:35:46;1.20;38.60
1461;DHT22;724;49.910;12.530;2024-01-07T00:38:13;1.20;1.00
1461;DHT22;724;49.910;12.530;2024-01-07T00:40:39;1.20;1.00
1461;DHT22;724;49.910;12.530;2024-01-07T00:43:06;1.20;1.00
1461;DHT22;724;49.910;12.530;2024-01-07T00:45:33;1.20;1.00
1461;DHT22;724;49.910;12.530;2024-01-07T00:48:00;1.20;1.00
1461;DHT22;724;49.910;12.530;2024-01-07T00:50:28;1.10;1.00
1461;DHT22;724;49.910;12.530;2024-01-07T00:52:55;1.20;23.50
1461;DHT22;724;49.910;12.530;2024-01-07T00:55:22;1.20;40.20
1461;DHT22;724;49.910;12.530;2024-01-07T00:57:49;1.20;51.60
1461;DHT22;724;49.910;12.530;2024-01-07T01:00:17;1.10;18.00
1461;DHT22;724;49.910;12.530;2024-01-07T01:02:43;1.10;9.70
1461;DHT22;724;49.910;12.530;2024-01-07T01:05:10;1.10;27.60
1461;DHT22;724;49.910;12.530;2024-01-07T01:07:38;1.20;58.60
1461;DHT22;724;49.910;12.530;2024-01-07T01:10:06;1.10;30.50
1461;DHT22;724;49.910;12.530;2024-01-07T01:12:33;1.20;45.50
1461;DHT22;724;49.910;12.530;2024-01-07T01:15:00;1.20;29.80
1461;DHT22;724;49.910;12.530;2024-01-07T01:17:27;1.10;1.00
1461;DHT22;724;49.910;12.530;2024-01-07T01:19:54;1.10;21.60
1461;DHT22;724;49.910;12.530;2024-01-07T01:22:21;1.10;24.90
1461;DHT22;724;49.910;12.530;2024-01-07T01:24:49;1.10;13.40
1461;DHT22;724;49.910;12.530;2024-01-07T01:27:16;1.10;22.70
1461;DHT22;724;49.910;12.530;2024-01-07T01:29:43;1.10;75.00
1461;DHT22;724;49.910;12.530;2024-01-07T01:32:10;1.00;90.90
1461;DHT22;724;49.910;12.530;2024-01-07T01:34:37;1.00;91.10
1461;DHT22;724;49.910;12.530;2024-01-07T01:37:04;1.00;99.50
1461;DHT22;724;49.910;12.530;2024-01-07T01:39:30;1.00;99.90
1461;DHT22;724;49.910;12.530;2024-01-07T01:41:58;0.90;99.90
1461;DHT22;724;49.910;12.530;2024-01-07T01:44:25;0.90;99.90
1461;DHT22;724;49.910;12.530;2024-01-07T01:46:53;0.90;99.90
1461;DHT22;724;49.910;12.530;2024-01-07T01:49:21;0.90;99.90
1461;DHT22;724;49.910;12.530;2024-01-07T01:51:48;0.90;99.90
1461;DHT22;724;49.910;12.530;2024-01-07T01:54:15;0.90;99.90
1461;DHT22;724;49.910;12.530;2024-01-07T01:56:43;0.90;99.90
1461;DHT22;724;49.910;12.530;2024-01-07T01:59:11;0.90;99.90
1461;DHT22;724;49.910;12.530;2024-01-07T02:01:39;0.90;99.90
1461;DHT22;724;49.910;12.530;2024-01-07T02:04:06;0.90;99.90
1461;DHT22;724;49.910;12.530;2024-01-07T02:06:33;0.80;99.90
1461;DHT22;724;49.910;12.530;2024-01-07T02:09:00;0.80;99.90
1461;DHT22;724;49.910;12.530;2024-01-07T02:11:27;0.90;99.90
1461;DHT22;724;49.910;12.530;2024-01-07T02:13:53;0.80;99.90
1461;DHT22;724;49.910;12.530;2024-01-07T02:16:21;0.80;99.90
1461;DHT22;724;49.910;12.530;2024-01-07T02:18:48;0.80;99.90
1461;DHT22;724;49.910;12.530;2024-01-07T02:21:15;0.80;99.90
1461;DHT22;724;49.910;12.530;2024-01-07T02:23:42;0.80;99.90
1461;DHT22;724;49.910;12.530;2024-01-07T02:26:10;0.70;99.90
1461;DHT22;724;49.910;12.530;2024-01-07T02:28:37;0.80;99.90
1461;DHT22;724;49.910;12.530;2024-01-07T02:31:04;0.80;99.90
1461;DHT22;724;49.910;12.530;2024-01-07T02:33:30;0.80;99.90
1461;DHT22;724;49.910;12.530;2024-01-07T02:35:57;0.70;99.90
1461;DHT22;724;49.910;12.530;2024-01-07T02:38:24;0.70;99.90
1461;DHT22;724;49.910;12.530;2024-01-07T02:40:50;0.70;99.90
1461;DHT22;724;49.910;12.530;2024-01-07T02:43:18;0.70;99.90
1461;DHT22;724;49.910;12.530;2024-01-07T02:45:45;0.70;99.90
1461;DHT22;724;49.910;12.530;2024-01-07T02:48:12;0.80;99.90
1461;DHT22;724;49.910;12.530;2024-01-07T02:50:39;0.70;99.90
1461;DHT22;724;49.910;12.530;2024-01-07T02:53:06;0.70;99.90
1461;DHT22;724;49.910;12.530;2024-01-07T02:55:36;0.70;99.90
1461;DHT22;724;49.910;12.530;2024-01-07T02:58:03;0.70;99.90
1461;DHT22;724;49.910;12.530;2024-01-07T03:00:31;0.70;99.90
1461;DHT22;724;49.910;12.530;2024-01-07T03:02:58;0.70;99.90
1461;DHT22;724;49.910;12.530;2024-01-07T03:05:25;0.60;99.90
1461;DHT22;724;49.910;12.530;2024-01-07T03:07:54;0.60;99.90
1461;DHT22;724;49.910;12.530;2024-01-07T03:10:21;0.60;99.90
1461;DHT22;724;49.910;12.530;2024-01-07T03:12:48;0.60;99.90
1461;DHT22;724;49.910;12.530;2024-01-07T03:15:14;0.60;99.90
1461;DHT22;724;49.910;12.530;2024-01-07T03:17:43;0.60;99.90
1461;DHT22;724;49.910;12.530;2024-01-07T03:20:11;0.60;99.90
1461;DHT22;724;49.910;12.530;2024-01-07T03:22:38;0.60;99.90
1461;DHT22;724;49.910;12.530;2024-01-07T03:25:06;0.60;99.90
1461;DHT22;724;49.910;12.530;2024-01-07T03:27:33;0.50;99.90
1461;DHT22;724;49.910;12.530;2024-01-07T03:30:00;0.50;99.90
1461;DHT22;724;49.910;12.530;2024-01-07T03:32:27;0.50;99.90
1461;DHT22;724;49.910;12.530;2024-01-07T03:34:55;0.50;99.90
1461;DHT22;724;49.910;12.530;2024-01-07T03:37:22;0.50;99.90
1461;DHT22;724;49.910;12.530;2024-01-07T03:39:49;0.50;99.90
1461;DHT22;724;49.910;12.530;2024-01-07T03:42:16;0.50;99.90
1461;DHT22;724;49.910;12.530;2024-01-07T03:44:43;0.50;99.90
1461;DHT22;724;49.910;12.530;2024-01-07T03:47:10;0.50;99.90
1461;DHT22;724;49.910;12.530;2024-01-07T03:49:37;0.40;48.90
1461;DHT22;724;49.910;12.530;2024-01-07T03:52:06;0.30;1.00
1461;DHT22;724;49.910;12.530;2024-01-07T03:54:34;0.30;1.00
1461;DHT22;724;49.910;12.530;2024-01-07T03:57:01;0.20;1.00
1461;DHT22;724;49.910;12.530;2024-01-07T03:59:27;0.20;1.00
1461;DHT22;724;49.910;12.530;2024-01-07T04:01:56;0.20;1.00
1461;DHT22;724;49.910;12.530;2024-01-07T04:04:23;0.10;1.00
1461;DHT22;724;49.910;12.530;2024-01-07T04:06:51;0.20;1.00
1461;DHT22;724;49.910;12.530;2024-01-07T04:09:19;0.20;1.00
1461;DHT22;724;49.910;12.530;2024-01-07T04:11:46;0.20;1.00
1461;DHT22;724;49.910;12.530;2024-01-07T04:14:14;0.10;1.00
1461;DHT22;724;49.910;12.530;2024-01-07T04:16:41;0.20;1.00
1461;DHT22;724;49.910;12.530;2024-01-07T04:19:08;0.10;1.00
1461;DHT22;724;49.910;12.530;2024-01-07T04:21:35;0.10;1.00
1461;DHT22;724;49.910;12.530;2024-01-07T04:24:03;0.10;1.00
1461;DHT22;724;49.910;12.530;2024-01-07T04:26:31;0.10;1.00
1461;DHT22;724;49.910;12.530;2024-01-07T04:28:58;0.10;1.00
1461;DHT22;724;49.910;12.530;2024-01-07T04:31:24;0.10;1.00
1461;DHT22;724;49.910;12.530;2024-01-07T04:33:51;0.10;1.00
1461;DHT22;724;49.910;12.530;2024-01-07T04:36:18;0.10;1.00
1461;DHT22;724;49.910;12.530;2024-01-07T04:38:44;0.10;1.00
1461;DHT22;724;49.910;12.530;2024-01-07T04:41:11;0.10;1.00
1461;DHT22;724;49.910;12.530;2024-01-07T04:43:40;0.10;1.00
1461;DHT22;724;49.910;12.530;2024-01-07T04:46:08;0.00;1.00
1461;DHT22;724;49.910;12.530;2024-01-07T04:48:36;0.00;1.00
1461;DHT22;724;49.910;12.530;2024-01-07T04:51:03;0.00;1.00
1461;DHT22;724;49.910;12.530;2024-01-07T04:53:30;0.00;1.00
1461;DHT22;724;49.910;12.530;2024-01-07T04:55:57;0.00;1.00
1461;DHT22;724;49.910;12.530;2024-01-07T04:58:24;0.00;1.00
1461;DHT22;724;49.910;12.530;2024-01-07T05:00:52;0.00;1.00
1461;DHT22;724;49.910;12.530;2024-01-07T05:03:19;0.00;1.00
1461;DHT22;724;49.910;12.530;2024-01-07T05:05:47;-0.10;1.00
1461;DHT22;724;49.910;12.530;2024-01-07T05:08:13;-0.10;1.00
1461;DHT22;724;49.910;12.530;2024-01-07T05:10:40;-0.10;1.00
1461;DHT22;724;49.910;12.530;2024-01-07T05:13:07;-0.20;1.00
1461;DHT22;724;49.910;12.530;2024-01-07T05:15:34;-0.10;1.00
1461;DHT22;724;49.910;12.530;2024-01-07T05:18:02;-0.20;1.00
1461;DHT22;724;49.910;12.530;2024-01-07T05:20:33;-0.30;1.00
1461;DHT22;724;49.910;12.530;2024-01-07T05:23:00;-0.30;1.00
1461;DHT22;724;49.910;12.530;2024-01-07T05:25:26;-0.30;1.00
1461;DHT22;724;49.910;12.530;2024-01-07T05:27:53;-0.20;1.00
1461;DHT22;724;49.910;12.530;2024-01-07T05:30:20;-0.20;1.00
1461;DHT22;724;49.910;12.530;2024-01-07T05:32:47;-0.20;1.00
1461;DHT22;724;49.910;12.530;2024-01-07T05:35:15;-0.30;1.00
1461;DHT22;724;49.910;12.530;2024-01-07T05:37:42;-0.30;1.00
1461;DHT22;724;49.910;12.530;2024-01-07T05:40:10;-0.30;1.00
1461;DHT22;724;49.910;12.530;2024-01-07T05:42:38;-0.30;1.00
1461;DHT22;724;49.910;12.530;2024-01-07T05:45:05;-0.30;1.00
1461;DHT22;724;49.910;12.530;2024-01-07T05:47:32;-0.30;1.00
1461;DHT22;724;49.910;12.530;2024-01-07T05:49:59;-0.30;1.00
1461;DHT22;724;49.910;12.530;2024-01-07T05:52:27;-0.30;1.00
1461;DHT22;724;49.910;12.530;2024-01-07T05:54:54;-0.40;1.00
1461;DHT22;724;49.910;12.530;2024-01-07T05:57:21;-0.30;1.00
1461;DHT22;724;49.910;12.530;2024-01-07T05:59:47;-0.30;1.00
1461;DHT22;724;49.910;12.530;2024-01-07T06:02:15;-0.40;1.00
1461;DHT22;724;49.910;12.530;2024-01-07T06:04:43;-0.40;1.00
1461;DHT22;724;49.910;12.530;2024-01-07T06:07:10;-0.30;1.00
1461;DHT22;724;49.910;12.530;2024-01-07T06:09:38;-0.30;1.00
1461;DHT22;724;49.910;12.530;2024-01-07T06:12:05;-0.30;1.00
1461;DHT22;724;49.910;12.530;2024-01-07T06:14:32;-0.30;1.00
1461;DHT22;724;49.910;12.530;2024-01-07T06:16:59;-0.30;1.00
1461;DHT22;724;49.910;12.530;2024-01-07T06:19:26;-0.40;1.00
1461;DHT22;724;49.910;12.530;2024-01-07T06:21:53;-0.40;1.00
1461;DHT22;724;49.910;12.530;2024-01-07T06:24:19;-0.40;1.00
1461;DHT22;724;49.910;12.530;2024-01-07T06:26:47;-0.40;1.00
1461;DHT22;724;49.910;12.530;2024-01-07T06:29:14;-0.40;1.00
1461;DHT22;724;49.910;12.530;2024-01-07T06:31:43;-0.40;1.00
1461;DHT22;724;49.910;12.530;2024-01-07T06:34:11;-0.40;1.00
1461;DHT22;724;49.910;12.530;2024-01-07T06:36:39;-0.40;1.00
1461;DHT22;724;49.910;12.530;2024-01-07T06:39:06;-0.40;1.00
1461;DHT22;724;49.910;12.530;2024-01-07T06:41:33;-0.40;1.00
1461;DHT22;724;49.910;12.530;2024-01-07T06:44:02;-0.40;1.00
1461;DHT22;724;49.910;12.530;2024-01-07T06:46:28;-0.50;1.00
1461;DHT22;724;49.910;12.530;2024-01-07T06:48:55;-0.50;1.00
1461;DHT22;724;49.910;12.530;2024-01-07T06:51:22;-0.50;1.00
1461;DHT22;724;49.910;12.530;2024-01-07T06:53:49;-0.50;1.00
1461;DHT22;724;49.910;12.530;2024-01-07T06:56:16;-0.60;1.00
1461;DHT22;724;49.910;12.530;2024-01-07T06:58:43;-0.60;1.00
1461;DHT22;724;49.910;12.530;2024-01-07T07:01:11;-0.60;1.00
1461;DHT22;724;49.910;12.530;2024-01-07T07:03:40;-0.70;99.90
1461;DHT22;724;49.910;12.530;2024-01-07T07:06:07;-0.70;99.90
1461;DHT22;724;49.910;12.530;2024-01-07T07:08:33;-0.70;99.90
1461;DHT22;724;49.910;12.530;2024-01-07T07:11:00;-0.70;99.90
1461;DHT22;724;49.910;12.530;2024-01-07T07:13:27;-0.70;99.90
1461;DHT22;724;49.910;12.530;2024-01-07T07:15:54;-0.70;99.90
1461;DHT22;724;49.910;12.530;2024-01-07T07:18:22;-0.70;99.90
1461;DHT22;724;49.910;12.530;2024-01-07T07:20:49;-0.70;99.90
1461;DHT22;724;49.910;12.530;2024-01-07T07:23:17;-0.80;99.90
1461;DHT22;724;49.910;12.530;2024-01-07T07:25:43;-0.80;99.90
1461;DHT22;724;49.910;12.530;2024-01-07T07:28:10;-0.70;99.90
1461;DHT22;724;49.910;12.530;2024-01-07T07:30:37;-0.70;99.90
1461;DHT22;724;49.910;12.530;2024-01-07T07:33:04;-0.70;99.90
1461;DHT22;724;49.910;12.530;2024-01-07T07:35:32;-0.70;99.90
1461;DHT22;724;49.910;12.530;2024-01-07T07:37:59;-0.70;99.90
1461;DHT22;724;49.910;12.530;2024-01-07T07:40:26;-0.70;99.90
1461;DHT22;724;49.910;12.530;2024-01-07T07:42:53;-0.70;99.90
1461;DHT22;724;49.910;12.530;2024-01-07T07:45:19;-0.70;99.90
1461;DHT22;724;49.910;12.530;2024-01-07T07:47:46;-0.70;99.90
1461;DHT22;724;49.910;12.530;2024-01-07T07:50:13;-0.70;99.90
1461;DHT22;724;49.910;12.530;2024-01-07T07:52:43;-0.70;99.90
1461;DHT22;724;49.910;12.530;2024-01-07T07:55:10;-0.80;99.90
1461;DHT22;724;49.910;12.530;2024-01-07T07:57:37;-0.80;99.90
1461;DHT22;724;49.910;12.530;2024-01-07T08:00:05;-0.80;99.90
1461;DHT22;724;49.910;12.530;2024-01-07T08:02:32;-0.70;99.90
1461;DHT22;724;49.910;12.530;2024-01-07T08:04:59;-0.80;99.90
1461;DHT22;724;49.910;12.530;2024-01-07T08:07:26;-0.80;99.90
1461;DHT22;724;49.910;12.530;2024-01-07T08:09:54;-0.70;99.90
1461;DHT22;724;49.910;12.530;2024-01-07T08:12:22;-0.80;99.90
1461;DHT22;724;49.910;12.530;2024-01-07T08:14:49;-0.80;99.90
1461;DHT22;724;49.910;12.530;2024-01-07T08:17:16;-0.70;99.90
1461;DHT22;724;49.910;12.530;2024-01-07T08:19:43;-0.80;99.90
1461;DHT22;724;49.910;12.530;2024-01-07T08:22:10;-0.80;99.90
1461;DHT22;724;49.910;12.530;2024-01-07T08:24:37;-0.80;99.90
1461;DHT22;724;49.910;12.530;2024-01-07T08:27:06;-0.80;97.10
1461;DHT22;724;49.910;12.530;2024-01-07T08:29:33;-0.80;99.20
1461;DHT22;724;49.910;12.530;2024-01-07T08:32:00;-0.90;14.20
1461;DHT22;724;49.910;12.530;2024-01-07T08:34:27;-0.90;1.00
1461;DHT22;724;49.910;12.530;2024-01-07T08:36:54;-0.90;1.00
1461;DHT22;724;49.910;12.530;2024-01-07T08:39:21;-0.90;1.00
1461;DHT22;724;49.910;12.530;2024-01-07T08:41:47;-0.90;1.00
1461;DHT22;724;49.910;12.530;2024-01-07T08:44:15;-1.00;1.00
1461;DHT22;724;49.910;12.530;2024-01-07T08:46:43;-1.00;1.00
1461;DHT22;724;49.910;12.530;2024-01-07T08:49:11;-0.90;1.00
1461;DHT22;724;49.910;12.530;2024-01-07T08:51:39;-0.90;17.90
1461;DHT22;724;49.910;12.530;2024-01-07T08:54:06;-0.90;1.00
1461;DHT22;724;49.910;12.530;2024-01-07T08:56:34;-0.90;1.00
1461;DHT22;724;49.910;12.530;2024-01-07T08:59:00;-0.90;1.00
1461;DHT22;724;49.910;12.530;2024-01-07T09:01:31;-0.80;77.00
1461;DHT22;724;49.910;12.530;2024-01-07T09:03:57;-0.90;21.80
1461;DHT22;724;49.910;12.530;2024-01-07T09:06:24;-0.80;64.30
1461;DHT22;724;49.910;12.530;2024-01-07T09:08:51;-1.00;1.00
1461;DHT22;724;49.910;12.530;2024-01-07T09:11:19;-0.90;1.00
1461;DHT22;724;49.910;12.530;2024-01-07T09:13:46;-0.80;1.00
1461;DHT22;724;49.910;12.530;2024-01-07T09:16:14;-0.80;1.00
1461;DHT22;724;49.910;12.530;2024-01-07T09:18:42;-0.80;1.00
1461;DHT22;724;49.910;12.530;2024-01-07T09:21:10;-0.80;1.00
1461;DHT22;724;49.910;12.530;2024-01-07T09:23:36;-0.90;1.00
1461;DHT22;724;49.910;12.530;2024-01-07T09:26:03;-0.80;1.00
1461;DHT22;724;49.910;12.530;2024-01-07T09:28:30;-0.80;1.00
1461;DHT22;724;49.910;12.530;2024-01-07T09:30:58;-0.80;1.00
1461;DHT22;724;49.910;12.530;2024-01-07T09:33:25;-0.80;1.00
1461;DHT22;724;49.910;12.530;2024-01-07T09:35:53;-1.00;1.00
1461;DHT22;724;49.910;12.530;2024-01-07T09:38:20;-0.80;1.00
1461;DHT22;724;49.910;12.530;2024-01-07T09:40:49;-0.70;1.00
1461;DHT22;724;49.910;12.530;2024-01-07T09:43:16;-0.80;1.00
1461;DHT22;724;49.910;12.530;2024-01-07T09:45:46;-0.90;1.00
1461;DHT22;724;49.910;12.530;2024-01-07T09:48:13;-1.00;1.00
1461;DHT22;724;49.910;12.530;2024-01-07T09:50:40;-0.90;1.00
1461;DHT22;724;49.910;12.530;2024-01-07T09:53:11;-0.90;1.00
1461;DHT22;724;49.910;12.530;2024-01-07T09:55:45;-0.80;1.00
1461;DHT22;724;49.910;12.530;2024-01-07T09:58:14;-0.80;1.00
1461;DHT22;724;49.910;12.530;2024-01-07T10:00:40;-0.90;1.00
1461;DHT22;724;49.910;12.530;2024-01-07T10:03:07;-0.80;1.00
1461;DHT22;724;49.910;12.530;2024-01-07T10:05:34;-0.80;1.00
1461;DHT22;724;49.910;12.530;2024-01-07T10:08:02;-0.80;1.00
1461;DHT22;724;49.910;12.530;2024-01-07T10:10:30;-0.80;1.00
1461;DHT22;724;49.910;12.530;2024-01-07T10:12:57;-0.80;99.90
1461;DHT22;724;49.910;12.530;2024-01-07T10:15:24;-0.80;99.90
1461;DHT22;724;49.910;12.530;2024-01-07T10:17:55;-0.80;99.90
1461;DHT22;724;49.910;12.530;2024-01-07T10:20:22;-0.90;99.90
1461;DHT22;724;49.910;12.530;2024-01-07T10:22:51;-0.80;99.90
1461;DHT22;724;49.910;12.530;2024-01-07T10:25:22;-0.80;99.90
1461;DHT22;724;49.910;12.530;2024-01-07T10:27:50;-0.90;99.90
1461;DHT22;724;49.910;12.530;2024-01-07T10:30:17;-0.90;99.90
1461;DHT22;724;49.910;12.530;2024-01-07T10:32:44;-0.90;99.90
1461;DHT22;724;49.910;12.530;2024-01-07T10:35:13;-0.90;99.90
1461;DHT22;724;49.910;12.530;2024-01-07T10:37:41;-0.90;99.90
1461;DHT22;724;49.910;12.530;2024-01-07T10:40:11;-0.90;99.90
1461;DHT22;724;49.910;12.530;2024-01-07T10:42:38;-0.80;99.90
1461;DHT22;724;49.910;12.530;2024-01-07T10:45:08;-0.80;99.90
1461;DHT22;724;49.910;12.530;2024-01-07T10:47:38;-0.70;99.90
1461;DHT22;724;49.910;12.530;2024-01-07T10:50:08;-0.90;99.90
1461;DHT22;724;49.910;12.530;2024-01-07T10:52:40;-0.90;99.90
1461;DHT22;724;49.910;12.530;2024-01-07T10:55:09;-0.90;99.90
1461;DHT22;724;49.910;12.530;2024-01-07T10:57:43;-1.00;99.90
1461;DHT22;724;49.910;12.530;2024-01-07T11:00:14;-1.10;99.90
1461;DHT22;724;49.910;12.530;2024-01-07T11:02:57;-1.20;99.90
1461;DHT22;724;49.910;12.530;2024-01-07T11:05:34;-1.30;99.90
1461;DHT22;724;49.910;12.530;2024-01-07T11:08:06;-1.30;99.90
1461;DHT22;724;49.910;12.530;2024-01-07T11:10:38;-1.30;93.90
1461;DHT22;724;49.910;12.530;2024-01-07T11:13:06;-1.30;92.20
1461;DHT22;724;49.910;12.530;2024-01-07T11:15:53;-1.30;95.50
1461;DHT22;724;49.910;12.530;2024-01-07T11:18:21;-1.20;96.00
1461;DHT22;724;49.910;12.530;2024-01-07T11:20:48;-1.20;99.90
1461;DHT22;724;49.910;12.530;2024-01-07T11:23:28;-1.30;49.00
1461;DHT22;724;49.910;12.530;2024-01-07T11:25:56;-1.30;1.00
1461;DHT22;724;49.910;12.530;2024-01-07T11:28:43;-1.30;1.00
1461;DHT22;724;49.910;12.530;2024-01-07T11:31:11;-1.40;1.00
1461;DHT22;724;49.910;12.530;2024-01-07T11:33:38;-1.40;1.00
1461;DHT22;724;49.910;12.530;2024-01-07T11:36:06;-1.40;1.00
1461;DHT22;724;49.910;12.530;2024-01-07T11:38:34;-1.40;1.00
1461;DHT22;724;49.910;12.530;2024-01-07T11:41:03;-1.40;1.00
1461;DHT22;724;49.910;12.530;2024-01-07T11:43:31;-1.30;1.00
1461;DHT22;724;49.910;12.530;2024-01-07T11:46:01;-1.30;1.00
1461;DHT22;724;49.910;12.530;2024-01-07T11:48:29;-1.30;1.00
1461;DHT22;724;49.910;12.530;2024-01-07T11:50:56;-1.30;1.00
1461;DHT22;724;49.910;12.530;2024-01-07T11:53:22;-1.30;1.00
1461;DHT22;724;49.910;12.530;2024-01-07T11:55:49;-1.30;1.00
1461;DHT22;724;49.910;12.530;2024-01-07T11:58:16;-1.30;1.00
1461;DHT22;724;49.910;12.530;2024-01-07T12:00:43;-1.20;1.00
1461;DHT22;724;49.910;12.530;2024-01-07T12:03:10;-1.10;1.00
1461;DHT22;724;49.910;12.530;2024-01-07T12:05:38;-0.90;1.00
1461;DHT22;724;49.910;12.530;2024-01-07T12:08:06;-1.20;1.00
1461;DHT22;724;49.910;12.530;2024-01-07T12:10:33;-1.20;1.00
1461;DHT22;724;49.910;12.530;2024-01-07T12:13:00;-1.10;1.00
1461;DHT22;724;49.910;12.530;2024-01-07T12:15:29;-1.10;1.00
1461;DHT22;724;49.910;12.530;2024-01-07T12:17:57;-1.10;1.00
1461;DHT22;724;49.910;12.530;2024-01-07T12:20:25;-1.10;1.00
1461;DHT22;724;49.910;12.530;2024-01-07T12:22:56;-1.00;99.90
1461;DHT22;724;49.910;12.530;2024-01-07T12:25:23;-1.20;99.90
1461;DHT22;724;49.910;12.530;2024-01-07T12:27:50;-1.30;99.90
1461;DHT22;724;49.910;12.530;2024-01-07T12:30:19;-1.30;99.90
1461;DHT22;724;49.910;12.530;2024-01-07T12:32:47;-1.20;99.90
1461;DHT22;724;49.910;12.530;2024-01-07T12:35:13;-1.20;99.90
1461;DHT22;724;49.910;12.530;2024-01-07T12:37:41;-1.10;99.90
1461;DHT22;724;49.910;12.530;2024-01-07T12:40:11;-1.20;99.90
1461;DHT22;724;49.910;12.530;2024-01-07T12:42:38;-1.30;7.10
1461;DHT22;724;49.910;12.530;2024-01-07T12:45:10;-1.40;43.20
1461;DHT22;724;49.910;12.530;2024-01-07T12:47:37;-1.30;85.20
1461;DHT22;724;49.910;12.530;2024-01-07T12:50:04;-1.30;1.00
1461;DHT22;724;49.910;12.530;2024-01-07T12:52:31;-1.50;1.00
1461;DHT22;724;49.910;12.530;2024-01-07T12:54:58;-1.50;1.00
1461;DHT22;724;49.910;12.530;2024-01-07T12:57:26;-1.50;1.00
1461;DHT22;724;49.910;12.530;2024-01-07T12:59:53;-1.50;1.00
1461;DHT22;724;49.910;12.530;2024-01-07T13:02:20;-1.30;1.00
1461;DHT22;724;49.910;12.530;2024-01-07T13:04:47;-1.50;1.00
1461;DHT22;724;49.910;12.530;2024-01-07T13:07:14;-1.50;1.00
1461;DHT22;724;49.910;12.530;2024-01-07T13:09:41;-1.50;1.00
1461;DHT22;724;49.910;12.530;2024-01-07T13:12:10;-1.60;1.00
1461;DHT22;724;49.910;12.530;2024-01-07T13:14:38;-1.70;1.00
1461;DHT22;724;49.910;12.530;2024-01-07T13:17:05;-1.60;1.00
1461;DHT22;724;49.910;12.530;2024-01-07T13:19:33;-1.60;1.00
1461;DHT22;724;49.910;12.530;2024-01-07T13:22:00;-1.50;1.00
1461;DHT22;724;49.910;12.530;2024-01-07T13:24:27;-1.60;1.00
1461;DHT22;724;49.910;12.530;2024-01-07T13:26:54;-1.70;1.00
1461;DHT22;724;49.910;12.530;2024-01-07T13:29:20;-1.70;1.00
1461;DHT22;724;49.910;12.530;2024-01-07T13:31:48;-1.70;1.00
1461;DHT22;724;49.910;12.530;2024-01-07T13:34:16;-1.60;1.00
1461;DHT22;724;49.910;12.530;2024-01-07T13:36:43;-1.60;1.00
1461;DHT22;724;49.910;12.530;2024-01-07T13:39:10;-1.60;1.00
1461;DHT22;724;49.910;12.530;2024-01-07T13:41:37;-1.60;1.00
1461;DHT22;724;49.910;12.530;2024-01-07T13:44:04;-1.60;1.00
1461;DHT22;724;49.910;12.530;2024-01-07T13:46:32;-1.60;1.00
1461;DHT22;724;49.910;12.530;2024-01-07T13:49:00;-1.60;1.00
1461;DHT22;724;49.910;12.530;2024-01-07T13:51:27;-1.50;1.00
1461;DHT22;724;49.910;12.530;2024-01-07T13:53:54;-1.40;1.00
1461;DHT22;724;49.910;12.530;2024-01-07T13:56:21;-1.40;1.00
1461;DHT22;724;49.910;12.530;2024-01-07T13:58:48;-1.60;99.90
1461;DHT22;724;49.910;12.530;2024-01-07T14:01:15;-1.70;99.90
1461;DHT22;724;49.910;12.530;2024-01-07T14:03:42;-1.70;99.90
1461;DHT22;724;49.910;12.530;2024-01-07T14:06:10;-1.70;99.90
1461;DHT22;724;49.910;12.530;2024-01-07T14:08:37;-1.70;99.90
1461;DHT22;724;49.910;12.530;2024-01-07T14:11:04;-1.70;99.90
1461;DHT22;724;49.910;12.530;2024-01-07T14:13:32;-1.70;99.90
1461;DHT22;724;49.910;12.530;2024-01-07T14:15:59;-1.80;99.90
1461;DHT22;724;49.910;12.530;2024-01-07T14:18:26;-1.70;99.90
1461;DHT22;724;49.910;12.530;2024-01-07T14:20:53;-1.70;99.90
1461;DHT22;724;49.910;12.530;2024-01-07T14:23:21;-1.70;99.90
1461;DHT22;724;49.910;12.530;2024-01-07T14:25:48;-1.90;99.90
1461;DHT22;724;49.910;12.530;2024-01-07T14:28:15;-1.80;99.90
1461;DHT22;724;49.910;12.530;2024-01-07T14:30:42;-1.90;99.90
1461;DHT22;724;49.910;12.530;2024-01-07T14:33:09;-1.90;99.90
1461;DHT22;724;49.910;12.530;2024-01-07T14:35:36;-2.00;99.90
1461;DHT22;724;49.910;12.530;2024-01-07T14:38:03;-2.00;99.90
1461;DHT22;724;49.910;12.530;2024-01-07T14:40:31;-2.10;99.90
1461;DHT22;724;49.910;12.530;2024-01-07T14:42:58;-2.00;99.90
1461;DHT22;724;49.910;12.530;2024-01-07T14:45:26;-2.20;99.90
1461;DHT22;724;49.910;12.530;2024-01-07T14:47:54;-2.30;99.90
1461;DHT22;724;49.910;12.530;2024-01-07T14:50:21;-2.20;99.90
1461;DHT22;724;49.910;12.530;2024-01-07T14:52:48;-2.20;97.80
1461;DHT22;724;49.910;12.530;2024-01-07T14:55:15;-2.30;82.70
1461;DHT22;724;49.910;12.530;2024-01-07T14:57:43;-2.30;86.50
1461;DHT22;724;49.910;12.530;2024-01-07T15:00:10;-2.30;58.40
1461;DHT22;724;49.910;12.530;2024-01-07T15:02:38;-2.50;10.70
1461;DHT22;724;49.910;12.530;2024-01-07T15:05:05;-2.50;11.70
1461;DHT22;724;49.910;12.530;2024-01-07T15:07:33;-2.50;3.90
1461;DHT22;724;49.910;12.530;2024-01-07T15:10:00;-2.50;1.00
1461;DHT22;724;49.910;12.530;2024-01-07T15:12:26;-2.60;1.00
1461;DHT22;724;49.910;12.530;2024-01-07T15:15:02;-2.60;1.00
1461;DHT22;724;49.910;12.530;2024-01-07T15:17:31;-2.60;1.00
1461;DHT22;724;49.910;12.530;2024-01-07T15:19:58;-2.60;1.00
1461;DHT22;724;49.910;12.530;2024-01-07T15:22:24;-2.60;1.00
1461;DHT22;724;49.910;12.530;2024-01-07T15:24:51;-2.60;1.00
1461;DHT22;724;49.910;12.530;2024-01-07T15:27:19;-2.70;1.00
1461;DHT22;724;49.910;12.530;2024-01-07T15:29:46;-2.70;1.00
1461;DHT22;724;49.910;12.530;2024-01-07T15:32:14;-2.90;1.00
1461;DHT22;724;49.910;12.530;2024-01-07T15:34:41;-2.80;1.00
1461;DHT22;724;49.910;12.530;2024-01-07T15:37:08;-2.80;1.00
1461;DHT22;724;49.910;12.530;2024-01-07T15:39:35;-2.80;1.00
1461;DHT22;724;49.910;12.530;2024-01-07T15:42:02;-2.80;1.00
1461;DHT22;724;49.910;12.530;2024-01-07T15:44:29;-3.00;1.00
1461;DHT22;724;49.910;12.530;2024-01-07T15:46:56;-3.00;1.00
1461;DHT22;724;49.910;12.530;2024-01-07T15:49:25;-3.00;1.00
1461;DHT22;724;49.910;12.530;2024-01-07T15:51:51;-2.90;1.00
1461;DHT22;724;49.910;12.530;2024-01-07T15:54:18;-3.10;1.00
1461;DHT22;724;49.910;12.530;2024-01-07T15:56:45;-3.20;1.00
1461;DHT22;724;49.910;12.530;2024-01-07T15:59:12;-3.10;1.00
1461;DHT22;724;49.910;12.530;2024-01-07T16:01:45;-3.10;1.00
1461;DHT22;724;49.910;12.530;2024-01-07T16:04:12;-3.20;1.00
1461;DHT22;724;49.910;12.530;2024-01-07T16:06:41;-3.10;1.00
1461;DHT22;724;49.910;12.530;2024-01-07T16:09:11;-3.20;1.00
1461;DHT22;724;49.910;12.530;2024-01-07T16:11:38;-3.30;1.00
1461;DHT22;724;49.910;12.530;2024-01-07T16:14:05;-3.50;1.00
1461;DHT22;724;49.910;12.530;2024-01-07T16:16:32;-3.50;1.00